This is the latest recevied weather packets stored in our database for station/object KO5MO-11. If no packets are shown the sender has not sent any weather packets the latest 10 day(s).
| Time | Temp. | Humidity | Pressure | Rain* | Wind** | Luminosity | Snow |
|---|---|---|---|---|---|---|---|
| 1777671872 | 24.44° C | 44% | 1007.9 hPa | - | - | 769 W/m² | - |
| 1777671272 | 23.89° C | 38% | 1008.2 hPa | - | - | 751 W/m² | - |
| 1777670672 | 23.89° C | 37% | 1008.2 hPa | - | - | 755 W/m² | - |
| 1777670072 | 24.44° C | 37% | 1008.3 hPa | - | - | 761 W/m² | - |
| 1777669472 | 25.56° C | 37% | 1008.5 hPa | - | - | 781 W/m² | - |
| 1777668872 | 25° C | 43% | 1008.6 hPa | - | - | 777 W/m² | - |
| 1777668272 | 23.89° C | 38% | 1008.7 hPa | - | - | 751 W/m² | - |
| 1777667672 | 23.89° C | 37% | 1008.8 hPa | - | - | 754 W/m² | - |
| 1777667072 | 24.44° C | 37% | 1008.9 hPa | - | - | 762 W/m² | - |
| 1777666472 | 25.56° C | 36% | 1008.9 hPa | - | - | 782 W/m² | - |
| 1777666454 | 25.56° C | 36% | 1008.9 hPa | - | - | 783 W/m² | - |
| 1777666418 | 25.56° C | 36% | 1008.9 hPa | - | - | 786 W/m² | - |
| 1777661455 | 24.44° C | 36% | 1010 hPa | - | - | 766 W/m² | - |
| 1777660855 | 26.67° C | 35% | 1010.2 hPa | - | - | 805 W/m² | - |
| 1777660255 | 25° C | 42% | 1010.4 hPa | - | - | 775 W/m² | - |
| 1777659655 | 23.89° C | 36% | 1010.5 hPa | - | - | 755 W/m² | - |
| 1777659055 | 24.44° C | 36% | 1010.6 hPa | - | - | 762 W/m² | - |
| 1777658455 | 26.11° C | 35% | 1010.8 hPa | - | - | 797 W/m² | - |
| 1777657855 | 25° C | 41% | 1010.9 hPa | - | - | 777 W/m² | - |
| 1777657255 | 23.89° C | 36% | 1010.9 hPa | - | - | 753 W/m² | - |
| 1777656655 | 24.44° C | 36% | 1011 hPa | - | - | 762 W/m² | - |
| 1777656055 | 26.67° C | 35% | 1011 hPa | - | - | 804 W/m² | - |
| 1777655455 | 25° C | 41% | 1011 hPa | - | - | 773 W/m² | - |
| 1777654855 | 23.33° C | 36% | 1011 hPa | - | - | 748 W/m² | - |
| 1777654255 | 23.89° C | 36% | 1011 hPa | - | - | 758 W/m² | - |
* Rain since midnight (hover to see other rain measurements)
** Current wind speed in m/s (hover to see current wind gust speed)